Terminal Aerodrome Forecast
Issued by NWS Houston/Galveston, TX

Home | Current Version | Previous Version | Text Only | Print | Product List | Glossary On
Versions: 1 2 3 4 5 6 7 8 9 10 11 12 13 14 15 16 17
000
FTUS44 KHGX 251130
TAFGLS
TAF
KGLS 251130Z 2512/2612 24003KT P6SM VCSH FEW024
     FM251600 18005KT P6SM VCTS BKN035CB
      TEMPO 2517/2521 TSRA
     FM260200 VRB04KT P6SM SCT050
     FM260900 VRB02KT P6SM VCSH SCT025=

USA.gov is the U.S. government's official web portal to all federal, state and local government web resources and services.